createdAt,value
2018-07-27T00:00:44.291Z,1012.67
2018-07-27T00:01:44.280Z,1012.69
2018-07-27T00:02:44.266Z,1012.67
2018-07-27T00:03:44.257Z,1012.70
2018-07-27T00:04:44.246Z,1012.70
2018-07-27T00:05:44.236Z,1012.71
2018-07-27T00:06:44.225Z,1012.70
2018-07-27T00:07:44.214Z,1012.72
2018-07-27T00:08:44.201Z,1012.68
2018-07-27T00:09:44.191Z,1012.66
2018-07-27T00:10:44.180Z,1012.71
2018-07-27T00:11:44.168Z,1012.67
2018-07-27T00:12:44.163Z,1012.66
2018-07-27T00:13:44.151Z,1012.66
2018-07-27T00:14:44.141Z,1012.71
2018-07-27T00:15:44.132Z,1012.66
2018-07-27T00:16:44.116Z,1012.70
2018-07-27T00:17:44.108Z,1012.69
2018-07-27T00:18:44.093Z,1012.67
2018-07-27T00:19:44.082Z,1012.69
2018-07-27T00:20:44.072Z,1012.65
2018-07-27T00:21:44.060Z,1012.69
2018-07-27T00:22:44.055Z,1012.67
2018-07-27T00:23:44.040Z,1012.67
2018-07-27T00:24:44.029Z,1012.69
2018-07-27T00:25:44.018Z,1012.68
2018-07-27T00:26:44.007Z,1012.64
2018-07-27T00:27:43.997Z,1012.67
2018-07-27T00:28:44.022Z,1012.65
2018-07-27T00:29:43.978Z,1012.67
2018-07-27T00:30:43.968Z,1012.64
2018-07-27T00:31:43.992Z,1012.69
2018-07-27T00:32:43.944Z,1012.68
2018-07-27T00:33:43.933Z,1012.65
2018-07-27T00:34:43.924Z,1012.62
2018-07-27T00:35:43.909Z,1012.63
2018-07-27T00:36:43.896Z,1012.65
2018-07-27T00:37:43.890Z,1012.60
2018-07-27T00:38:43.876Z,1012.64
2018-07-27T00:39:43.865Z,1012.61
2018-07-27T00:40:43.855Z,1012.62
2018-07-27T00:41:43.842Z,1012.61
2018-07-27T00:42:43.831Z,1012.59
2018-07-27T00:43:43.825Z,1012.63
2018-07-27T00:44:43.810Z,1012.62
2018-07-27T00:45:43.799Z,1012.64
2018-07-27T00:46:43.788Z,1012.63
2018-07-27T00:47:43.776Z,1012.64
2018-07-27T00:48:43.766Z,1012.70
2018-07-27T00:49:43.755Z,1012.67
2018-07-27T00:50:43.745Z,1012.67
2018-07-27T00:51:43.734Z,1012.68
2018-07-27T00:52:43.724Z,1012.64
2018-07-27T00:53:43.710Z,1012.61
2018-07-27T00:54:43.700Z,1012.59
2018-07-27T00:55:43.693Z,1012.57
2018-07-27T00:56:43.679Z,1012.55
2018-07-27T00:57:43.666Z,1012.57
2018-07-27T00:58:43.656Z,1012.53
2018-07-27T00:59:43.643Z,1012.53
2018-07-27T01:00:43.633Z,1012.53
2018-07-27T01:01:43.621Z,1012.48
2018-07-27T01:02:43.666Z,1012.53
2018-07-27T01:03:43.601Z,1012.53
2018-07-27T01:04:43.590Z,1012.54
2018-07-27T01:05:43.577Z,1012.50
2018-07-27T01:06:43.566Z,1012.51
2018-07-27T01:07:43.556Z,1012.48
2018-07-27T01:08:43.547Z,1012.49
2018-07-27T01:09:43.532Z,1012.51
2018-07-27T01:10:43.522Z,1012.46
2018-07-27T01:11:43.513Z,1012.45
2018-07-27T01:12:43.500Z,1012.47
2018-07-27T01:13:43.491Z,1012.49
2018-07-27T01:14:43.477Z,1012.44
2018-07-27T01:15:43.478Z,1012.43
2018-07-27T01:16:43.456Z,1012.48
2018-07-27T01:17:43.445Z,1012.48
2018-07-27T01:18:43.436Z,1012.47
2018-07-27T01:19:43.423Z,1012.47
2018-07-27T01:20:43.411Z,1012.45
2018-07-27T01:21:43.403Z,1012.46
2018-07-27T01:22:43.388Z,1012.45
2018-07-27T01:23:43.378Z,1012.45
2018-07-27T01:24:43.371Z,1012.46
2018-07-27T01:25:43.354Z,1012.43
2018-07-27T01:26:43.351Z,1012.43
2018-07-27T01:27:43.332Z,1012.44
2018-07-27T01:28:43.320Z,1012.40
2018-07-27T01:29:43.312Z,1012.39
2018-07-27T01:30:43.298Z,1012.43
2018-07-27T01:31:43.288Z,1012.42
2018-07-27T01:32:43.276Z,1012.39
2018-07-27T01:33:43.266Z,1012.39
2018-07-27T01:34:43.253Z,1012.38
2018-07-27T01:35:43.242Z,1012.41
2018-07-27T01:36:43.231Z,1012.42
2018-07-27T01:37:43.218Z,1012.40
2018-07-27T01:38:43.209Z,1012.41
2018-07-27T01:39:43.203Z,1012.37
2018-07-27T01:40:43.186Z,1012.38
2018-07-27T01:41:43.177Z,1012.37
2018-07-27T01:42:43.167Z,1012.33
2018-07-27T01:43:43.160Z,1012.33
2018-07-27T01:44:43.141Z,1012.31
2018-07-27T01:45:43.131Z,1012.30
2018-07-27T01:46:43.119Z,1012.32
2018-07-27T01:47:43.108Z,1012.33
2018-07-27T01:48:43.099Z,1012.31
2018-07-27T01:49:43.085Z,1012.34
2018-07-27T01:50:43.071Z,1012.32
2018-07-27T01:51:43.063Z,1012.34
2018-07-27T01:52:43.051Z,1012.32
2018-07-27T01:53:43.041Z,1012.34
2018-07-27T01:54:43.027Z,1012.35
2018-07-27T01:55:43.017Z,1012.35
2018-07-27T01:56:43.004Z,1012.32
2018-07-27T01:57:42.992Z,1012.36
2018-07-27T01:58:42.989Z,1012.30
2018-07-27T01:59:42.969Z,1012.30
2018-07-27T02:00:42.965Z,1012.34
2018-07-27T02:01:42.948Z,1012.29
2018-07-27T02:02:42.935Z,1012.32
2018-07-27T02:03:42.926Z,1012.32
2018-07-27T02:04:42.914Z,1012.32
2018-07-27T02:05:42.902Z,1012.30
2018-07-27T02:06:42.890Z,1012.29
2018-07-27T02:07:42.880Z,1012.34
2018-07-27T02:08:42.869Z,1012.32
2018-07-27T02:09:42.856Z,1012.33
2018-07-27T02:10:42.846Z,1012.36
2018-07-27T02:11:42.833Z,1012.31
2018-07-27T02:12:42.822Z,1012.33
2018-07-27T02:13:42.811Z,1012.33
2018-07-27T02:14:42.799Z,1012.34
2018-07-27T02:15:42.786Z,1012.34
2018-07-27T02:16:42.777Z,1012.35
2018-07-27T02:17:42.764Z,1012.31
2018-07-27T02:18:42.756Z,1012.32
2018-07-27T02:19:42.743Z,1012.31
2018-07-27T02:20:42.732Z,1012.32
2018-07-27T02:21:42.718Z,1012.30
2018-07-27T02:22:42.706Z,1012.32
2018-07-27T02:23:42.695Z,1012.31
2018-07-27T02:24:42.684Z,1012.30
2018-07-27T02:25:42.673Z,1012.31
2018-07-27T02:26:42.662Z,1012.24
2018-07-27T02:27:42.649Z,1012.24
2018-07-27T02:28:42.640Z,1012.26
2018-07-27T02:29:42.627Z,1012.24
2018-07-27T02:30:42.627Z,1012.21
2018-07-27T02:31:42.603Z,1012.22
2018-07-27T02:32:42.590Z,1012.23
2018-07-27T02:33:42.724Z,1012.18
2018-07-27T02:34:42.568Z,1012.20
2018-07-27T02:35:42.556Z,1012.17
2018-07-27T02:36:42.547Z,1012.19
2018-07-27T02:37:42.534Z,1012.19
2018-07-27T02:38:42.523Z,1012.18
2018-07-27T02:39:42.511Z,1012.18
2018-07-27T02:40:42.500Z,1012.16
2018-07-27T02:41:42.488Z,1012.13
2018-07-27T02:42:42.476Z,1012.11
2018-07-27T02:43:42.466Z,1012.09
2018-07-27T02:44:42.454Z,1012.09
2018-07-27T02:45:42.441Z,1012.08
2018-07-27T02:46:42.431Z,1012.09
2018-07-27T02:47:42.418Z,1012.08
2018-07-27T02:48:42.411Z,1012.07
2018-07-27T02:49:42.393Z,1012.06
2018-07-27T02:50:42.384Z,1012.03
2018-07-27T02:51:42.377Z,1012.04
2018-07-27T02:52:42.361Z,1012.06
2018-07-27T02:53:42.348Z,1012.06
2018-07-27T02:54:42.338Z,1012.07
2018-07-27T02:55:42.325Z,1012.12
2018-07-27T02:56:42.314Z,1012.08
2018-07-27T02:57:42.302Z,1012.05
2018-07-27T02:58:42.290Z,1012.11
2018-07-27T02:59:42.277Z,1012.18
2018-07-27T03:00:42.269Z,1012.11
2018-07-27T03:01:42.258Z,1012.15
2018-07-27T03:02:42.244Z,1012.18
2018-07-27T03:03:42.233Z,1012.14
2018-07-27T03:04:42.222Z,1012.17
2018-07-27T03:05:42.208Z,1012.17
2018-07-27T03:06:42.196Z,1012.18
2018-07-27T03:07:42.183Z,1012.21
2018-07-27T03:08:42.173Z,1012.23
2018-07-27T03:09:42.185Z,1012.24
2018-07-27T03:10:42.150Z,1012.27
2018-07-27T03:11:42.137Z,1012.25
2018-07-27T03:12:42.126Z,1012.26
2018-07-27T03:13:42.121Z,1012.25
2018-07-27T03:14:42.103Z,1012.27
2018-07-27T03:15:42.092Z,1012.26
2018-07-27T03:16:42.082Z,1012.28
2018-07-27T03:17:42.067Z,1012.28
2018-07-27T03:18:42.056Z,1012.29
2018-07-27T03:19:42.042Z,1012.26
2018-07-27T03:20:42.033Z,1012.27
2018-07-27T03:21:42.021Z,1012.27
2018-07-27T03:22:42.009Z,1012.26
2018-07-27T03:23:41.996Z,1012.29
2018-07-27T03:24:41.985Z,1012.30
2018-07-27T03:25:41.972Z,1012.31
2018-07-27T03:26:41.961Z,1012.28
2018-07-27T03:27:41.954Z,1012.29
2018-07-27T03:28:41.939Z,1012.28
2018-07-27T03:29:41.926Z,1012.30
2018-07-27T03:30:41.918Z,1012.31
2018-07-27T03:31:41.901Z,1012.28
2018-07-27T03:32:41.894Z,1012.27
2018-07-27T03:33:41.881Z,1012.29
2018-07-27T03:34:41.872Z,1012.31
2018-07-27T03:35:41.857Z,1012.34
2018-07-27T03:36:41.845Z,1012.31
2018-07-27T03:37:41.833Z,1012.30
2018-07-27T03:38:41.820Z,1012.32
2018-07-27T03:39:41.811Z,1012.32
2018-07-27T03:40:41.800Z,1012.29
2018-07-27T03:41:41.789Z,1012.31
2018-07-27T03:42:41.772Z,1012.31
2018-07-27T03:43:41.814Z,1012.31
2018-07-27T03:44:41.753Z,1012.32
2018-07-27T03:45:41.738Z,1012.30
2018-07-27T03:46:41.727Z,1012.30
2018-07-27T03:47:41.716Z,1012.34
2018-07-27T03:48:41.703Z,1012.36
2018-07-27T03:49:41.689Z,1012.35
2018-07-27T03:50:41.678Z,1012.38
2018-07-27T03:51:41.670Z,1012.41
2018-07-27T03:52:41.656Z,1012.38
2018-07-27T03:53:41.643Z,1012.41
2018-07-27T03:54:41.634Z,1012.46
2018-07-27T03:55:41.619Z,1012.45
2018-07-27T03:56:41.611Z,1012.46
2018-07-27T03:57:41.595Z,1012.44
2018-07-27T03:58:41.585Z,1012.47
2018-07-27T03:59:41.583Z,1012.50
2018-07-27T04:00:41.563Z,1012.48
2018-07-27T04:01:41.549Z,1012.48
2018-07-27T04:02:41.537Z,1012.46
2018-07-27T04:03:41.525Z,1012.41
2018-07-27T04:04:41.515Z,1012.39
2018-07-27T04:05:41.502Z,1012.41
2018-07-27T04:06:41.491Z,1012.39
2018-07-27T04:07:41.480Z,1012.38
2018-07-27T04:08:41.510Z,1012.39
2018-07-27T04:09:41.454Z,1012.40
2018-07-27T04:10:41.443Z,1012.38
2018-07-27T04:11:41.432Z,1012.36
2018-07-27T04:12:41.421Z,1012.38
2018-07-27T04:13:41.406Z,1012.36
2018-07-27T04:14:41.395Z,1012.38
2018-07-27T04:15:41.385Z,1012.37
2018-07-27T04:16:41.373Z,1012.37
2018-07-27T04:17:41.361Z,1012.39
2018-07-27T04:18:41.351Z,1012.38
2018-07-27T04:19:41.336Z,1012.36
2018-07-27T04:20:41.325Z,1012.39
2018-07-27T04:21:41.318Z,1012.36
2018-07-27T04:22:41.302Z,1012.35
2018-07-27T04:23:41.290Z,1012.39
2018-07-27T04:24:41.282Z,1012.37
2018-07-27T04:25:41.275Z,1012.40
2018-07-27T04:26:41.256Z,1012.39
2018-07-27T04:27:41.247Z,1012.39
2018-07-27T04:28:41.230Z,1012.40
2018-07-27T04:29:41.219Z,1012.39
2018-07-27T04:30:41.213Z,1012.39
2018-07-27T04:31:41.199Z,1012.37
2018-07-27T04:32:41.184Z,1012.38
2018-07-27T04:33:41.175Z,1012.39
2018-07-27T04:34:41.161Z,1012.40
2018-07-27T04:35:41.198Z,1012.41
2018-07-27T04:36:41.139Z,1012.41
2018-07-27T04:37:41.125Z,1012.41
2018-07-27T04:38:41.115Z,1012.42
2018-07-27T04:39:41.102Z,1012.43
2018-07-27T04:40:41.090Z,1012.40
2018-07-27T04:41:41.079Z,1012.42
2018-07-27T04:42:41.070Z,1012.44
2018-07-27T04:43:41.056Z,1012.42
2018-07-27T04:44:41.044Z,1012.43
2018-07-27T04:45:41.039Z,1012.41
2018-07-27T04:46:41.022Z,1012.42
2018-07-27T04:47:41.009Z,1012.43
2018-07-27T04:48:40.998Z,1012.46
2018-07-27T04:49:40.987Z,1012.46
2018-07-27T04:50:40.974Z,1012.47
2018-07-27T04:51:40.962Z,1012.46
2018-07-27T04:52:40.954Z,1012.47
2018-07-27T04:53:40.939Z,1012.48
2018-07-27T04:54:40.926Z,1012.47
2018-07-27T04:55:40.916Z,1012.47
2018-07-27T04:56:41.061Z,1012.50
2018-07-27T04:57:40.894Z,1012.48
2018-07-27T04:59:23.412Z,1012.53
2018-07-27T05:00:23.400Z,1012.51
2018-07-27T05:01:23.388Z,1012.52
2018-07-27T05:02:23.431Z,1012.55
2018-07-27T05:03:23.363Z,1012.55
2018-07-27T05:04:23.352Z,1012.55
2018-07-27T05:05:23.396Z,1012.53
2018-07-27T05:06:23.330Z,1012.55
2018-07-27T05:07:23.318Z,1012.52
2018-07-27T05:08:23.308Z,1012.55
2018-07-27T05:09:23.298Z,1012.55
2018-07-27T05:10:23.289Z,1012.53
2018-07-27T05:11:23.273Z,1012.54
2018-07-27T05:12:23.261Z,1012.55
2018-07-27T05:13:23.252Z,1012.54
2018-07-27T05:14:23.240Z,1012.56
2018-07-27T05:15:23.227Z,1012.59
2018-07-27T05:16:23.215Z,1012.56
2018-07-27T05:17:23.205Z,1012.59
2018-07-27T05:18:23.249Z,1012.58
2018-07-27T05:19:23.181Z,1012.60
2018-07-27T05:20:23.174Z,1012.65
2018-07-27T05:21:23.165Z,1012.61
2018-07-27T05:22:23.146Z,1012.64
2018-07-27T05:23:23.137Z,1012.62
2018-07-27T05:24:23.123Z,1012.64
2018-07-27T05:25:23.113Z,1012.63
2018-07-27T05:26:23.100Z,1012.65
2018-07-27T05:27:23.091Z,1012.65
2018-07-27T05:28:23.077Z,1012.63
2018-07-27T05:29:23.068Z,1012.62
2018-07-27T05:30:23.057Z,1012.65
2018-07-27T05:31:23.043Z,1012.63
2018-07-27T05:32:23.033Z,1012.61
2018-07-27T05:33:23.029Z,1012.59
2018-07-27T05:34:23.082Z,1012.59
2018-07-27T05:35:23.001Z,1012.63
2018-07-27T05:36:22.988Z,1012.66
2018-07-27T05:37:22.978Z,1012.63
2018-07-27T05:38:22.965Z,1012.69
2018-07-27T05:39:22.954Z,1012.66
2018-07-27T05:40:22.942Z,1012.63
2018-07-27T05:41:22.932Z,1012.66
2018-07-27T05:42:22.918Z,1012.63
2018-07-27T05:43:22.909Z,1012.62
2018-07-27T05:44:22.898Z,1012.62
2018-07-27T05:45:22.892Z,1012.62
2018-07-27T05:46:22.878Z,1012.64
2018-07-27T05:47:22.865Z,1012.62
2018-07-27T05:48:22.853Z,1012.62
2018-07-27T05:49:22.845Z,1012.63
2018-07-27T05:50:22.831Z,1012.67
2018-07-27T05:51:22.827Z,1012.66
2018-07-27T05:52:22.810Z,1012.63
2018-07-27T05:53:22.797Z,1012.63
2018-07-27T05:54:22.787Z,1012.66
2018-07-27T05:55:22.779Z,1012.65
2018-07-27T05:56:22.767Z,1012.66
2018-07-27T05:57:22.757Z,1012.63
2018-07-27T05:58:22.746Z,1012.63
2018-07-27T05:59:22.779Z,1012.68
2018-07-27T06:00:22.723Z,1012.63
2018-07-27T06:01:22.712Z,1012.64
2018-07-27T06:02:22.704Z,1012.61
2018-07-27T06:03:22.690Z,1012.60
2018-07-27T06:04:22.679Z,1012.58
2018-07-27T06:05:22.674Z,1012.57
2018-07-27T06:06:22.656Z,1012.59
2018-07-27T06:07:22.648Z,1012.53
2018-07-27T06:08:22.637Z,1012.51
2018-07-27T06:09:22.626Z,1012.58
2018-07-27T06:10:22.614Z,1012.58
2018-07-27T06:11:22.604Z,1012.57
2018-07-27T06:12:22.598Z,1012.59
2018-07-27T06:13:22.585Z,1012.59
2018-07-27T06:14:22.577Z,1012.62
2018-07-27T06:15:22.561Z,1012.62
2018-07-27T06:16:22.551Z,1012.64
2018-07-27T06:17:22.541Z,1012.60
2018-07-27T06:18:22.533Z,1012.64
2018-07-27T06:19:22.519Z,1012.66
2018-07-27T06:20:22.509Z,1012.61
2018-07-27T06:21:22.503Z,1012.61
2018-07-27T06:22:22.489Z,1012.64
2018-07-27T06:23:22.480Z,1012.65
2018-07-27T06:24:22.529Z,1012.64
2018-07-27T06:25:22.458Z,1012.66
2018-07-27T06:26:22.449Z,1012.67
2018-07-27T06:27:22.437Z,1012.69
2018-07-27T06:28:22.428Z,1012.67
2018-07-27T06:29:22.464Z,1012.68
2018-07-27T06:30:22.407Z,1012.68
2018-07-27T06:31:22.405Z,1012.66
2018-07-27T06:32:22.388Z,1012.66
2018-07-27T06:33:22.379Z,1012.66
2018-07-27T06:34:22.366Z,1012.67
2018-07-27T06:35:22.356Z,1012.67
2018-07-27T06:36:22.345Z,1012.66
2018-07-27T06:37:22.350Z,1012.66
2018-07-27T06:38:22.328Z,1012.66
2018-07-27T06:39:22.316Z,1012.65
2018-07-27T06:40:22.307Z,1012.65
2018-07-27T06:41:22.296Z,1012.67
2018-07-27T06:42:22.295Z,1012.66
2018-07-27T06:43:22.277Z,1012.65
2018-07-27T06:44:22.267Z,1012.64
2018-07-27T06:45:22.260Z,1012.65
2018-07-27T06:46:22.246Z,1012.66
2018-07-27T06:47:22.237Z,1012.66
2018-07-27T06:48:22.229Z,1012.66
2018-07-27T06:49:22.215Z,1012.63
2018-07-27T06:50:22.212Z,1012.66
2018-07-27T06:51:22.197Z,1012.68
2018-07-27T06:52:22.237Z,1012.66
2018-07-27T06:53:22.179Z,1012.68
2018-07-27T06:54:22.168Z,1012.65
2018-07-27T06:55:22.158Z,1012.70
2018-07-27T06:56:22.149Z,1012.68
2018-07-27T06:57:22.138Z,1012.75
2018-07-27T06:58:22.130Z,1012.73
2018-07-27T06:59:22.119Z,1012.76
2018-07-27T07:00:22.108Z,1012.80
2018-07-27T07:01:22.102Z,1012.80
2018-07-27T07:02:22.098Z,1012.80
2018-07-27T07:03:22.145Z,1012.81
2018-07-27T07:04:22.072Z,1012.85
2018-07-27T07:05:22.064Z,1012.82
2018-07-27T07:06:22.053Z,1012.86
2018-07-27T07:07:22.048Z,1012.89
2018-07-27T07:08:22.038Z,1012.86
2018-07-27T07:09:22.027Z,1012.89
2018-07-27T07:10:22.021Z,1012.90
2018-07-27T07:11:22.007Z,1012.93
2018-07-27T07:12:21.998Z,1012.92
2018-07-27T07:13:21.995Z,1012.90
2018-07-27T07:14:22.024Z,1012.92
2018-07-27T07:15:21.985Z,1012.93
2018-07-27T07:16:21.962Z,1013.00
2018-07-27T07:17:21.951Z,1013.02
2018-07-27T07:18:21.943Z,1013.02
2018-07-27T07:19:21.934Z,1013.03
2018-07-27T07:20:21.927Z,1013.00
2018-07-27T07:21:21.917Z,1012.99
2018-07-27T07:22:21.908Z,1013.01
2018-07-27T07:23:21.901Z,1013.00
2018-07-27T07:24:21.892Z,1013.00
2018-07-27T07:25:21.996Z,1013.03
2018-07-27T07:26:21.875Z,1012.99
2018-07-27T07:27:21.866Z,1012.98
2018-07-27T07:28:21.859Z,1012.97
2018-07-27T07:29:21.853Z,1012.96
2018-07-27T07:30:21.840Z,1012.96
2018-07-27T07:31:21.831Z,1013.00
2018-07-27T07:32:21.824Z,1012.98
2018-07-27T07:33:21.825Z,1012.96
2018-07-27T07:34:21.805Z,1012.98
2018-07-27T07:35:21.798Z,1012.99
2018-07-27T07:36:21.789Z,1012.92
2018-07-27T07:37:21.779Z,1012.93
2018-07-27T07:38:21.773Z,1012.94
2018-07-27T07:39:21.770Z,1012.93
2018-07-27T07:40:21.757Z,1012.98
2018-07-27T07:41:21.750Z,1012.97
2018-07-27T07:42:21.736Z,1013.00
2018-07-27T07:43:21.730Z,1013.03
2018-07-27T07:44:21.725Z,1013.01
2018-07-27T07:45:21.719Z,1013.01
2018-07-27T07:46:21.707Z,1012.78
2018-07-27T07:47:21.699Z,1012.80
2018-07-27T07:48:21.693Z,1012.74
2018-07-27T07:49:21.705Z,1012.72
2018-07-27T07:50:21.675Z,1012.75
2018-07-27T07:51:21.668Z,1012.75
2018-07-27T07:52:21.659Z,1012.80
2018-07-27T07:53:21.655Z,1012.79
2018-07-27T07:54:21.645Z,1012.74
2018-07-27T07:55:21.642Z,1012.77
2018-07-27T07:56:21.631Z,1012.84
2018-07-27T07:57:21.624Z,1012.78
2018-07-27T07:58:21.617Z,1012.76
2018-07-27T07:59:21.612Z,1012.76
2018-07-27T08:00:21.601Z,1012.73
2018-07-27T08:01:21.596Z,1012.71
2018-07-27T08:02:21.588Z,1012.69
2018-07-27T08:03:21.585Z,1012.69
2018-07-27T08:04:21.625Z,1012.70
2018-07-27T08:05:21.575Z,1012.69
2018-07-27T08:06:21.563Z,1012.68
2018-07-27T08:07:21.551Z,1012.69
2018-07-27T08:08:21.551Z,1012.67
2018-07-27T08:09:21.538Z,1012.63
2018-07-27T08:10:21.527Z,1012.63
2018-07-27T08:11:21.524Z,1012.67
2018-07-27T08:12:21.515Z,1012.63
2018-07-27T08:13:21.508Z,1012.66
2018-07-27T08:14:21.499Z,1012.63
2018-07-27T08:15:21.497Z,1012.62
2018-07-27T08:16:21.489Z,1012.62
2018-07-27T08:17:21.559Z,1012.63
2018-07-27T08:18:21.471Z,1012.64
2018-07-27T08:19:21.466Z,1012.62
2018-07-27T08:20:21.460Z,1012.67
2018-07-27T08:21:21.451Z,1012.65
2018-07-27T08:22:21.448Z,1012.64
2018-07-27T08:23:21.438Z,1012.62
2018-07-27T08:24:21.438Z,1012.63
2018-07-27T08:25:21.425Z,1012.62
2018-07-27T08:26:21.416Z,1012.65
2018-07-27T08:27:21.410Z,1012.63
2018-07-27T08:28:21.404Z,1012.59
2018-07-27T08:29:21.400Z,1012.59
2018-07-27T08:30:21.389Z,1012.62
2018-07-27T08:31:21.388Z,1012.61
2018-07-27T08:32:21.378Z,1012.59
2018-07-27T08:33:21.372Z,1012.54
2018-07-27T08:34:21.362Z,1012.57
2018-07-27T08:35:21.361Z,1012.57
2018-07-27T08:36:21.349Z,1012.54
2018-07-27T08:37:21.343Z,1012.53
2018-07-27T08:38:21.337Z,1012.54
2018-07-27T08:39:21.330Z,1012.57
2018-07-27T08:40:21.327Z,1012.54
2018-07-27T08:41:21.317Z,1012.48
2018-07-27T08:42:21.310Z,1012.47
2018-07-27T08:43:21.309Z,1012.47
2018-07-27T08:44:21.298Z,1012.54
2018-07-27T08:45:21.295Z,1012.44
2018-07-27T08:46:21.285Z,1012.48
2018-07-27T08:47:21.309Z,1012.52
2018-07-27T08:48:21.273Z,1012.58
2018-07-27T08:49:21.266Z,1012.57
2018-07-27T08:50:21.258Z,1012.54
2018-07-27T08:51:21.253Z,1012.57
2018-07-27T08:52:21.249Z,1012.53
2018-07-27T08:53:21.245Z,1012.53
2018-07-27T08:54:21.234Z,1012.43
2018-07-27T08:55:21.236Z,1012.46
2018-07-27T08:56:21.254Z,1012.41
2018-07-27T08:57:21.216Z,1012.49
2018-07-27T08:58:21.213Z,1012.49
2018-07-27T08:59:21.203Z,1012.49
2018-07-27T09:00:21.196Z,1012.48
2018-07-27T09:01:21.191Z,1012.48
2018-07-27T09:02:21.183Z,1012.50
2018-07-27T09:03:21.188Z,1012.51
2018-07-27T09:04:21.171Z,1012.51
2018-07-27T09:05:21.166Z,1012.48
2018-07-27T09:06:21.160Z,1012.48
2018-07-27T09:07:21.153Z,1012.48
2018-07-27T09:08:21.152Z,1012.52
2018-07-27T09:09:21.141Z,1012.51
2018-07-27T09:10:21.166Z,1012.50
2018-07-27T09:11:21.133Z,1012.44
2018-07-27T09:12:21.121Z,1012.49
2018-07-27T09:13:21.121Z,1012.42
2018-07-27T09:14:21.120Z,1012.41
2018-07-27T09:15:21.104Z,1012.41
2018-07-27T09:16:21.098Z,1012.39
2018-07-27T09:17:21.114Z,1012.40
2018-07-27T09:18:21.088Z,1012.37
2018-07-27T09:19:21.080Z,1012.40
2018-07-27T09:20:21.079Z,1012.40
2018-07-27T09:21:21.067Z,1012.34
2018-07-27T09:22:21.061Z,1012.38
2018-07-27T09:23:21.056Z,1012.36
2018-07-27T09:24:21.299Z,1012.33
2018-07-27T09:25:21.224Z,1012.36
2018-07-27T09:26:21.041Z,1012.30
2018-07-27T09:27:21.032Z,1012.27
2018-07-27T09:28:21.026Z,1012.32
2018-07-27T09:29:21.021Z,1012.31
2018-07-27T09:30:21.015Z,1012.34
2018-07-27T09:31:21.009Z,1012.31
2018-07-27T09:32:21.004Z,1012.20
2018-07-27T09:33:20.999Z,1012.30
2018-07-27T09:34:21.004Z,1012.16
2018-07-27T09:35:21.041Z,1012.19
2018-07-27T09:36:20.981Z,1012.29
2018-07-27T09:37:20.977Z,1012.35
2018-07-27T09:38:20.971Z,1012.30
2018-07-27T09:39:20.971Z,1012.29
2018-07-27T09:40:20.968Z,1012.26
2018-07-27T09:41:21.362Z,1012.23
2018-07-27T09:42:20.948Z,1012.23
2018-07-27T09:43:20.945Z,1012.27
2018-07-27T09:44:20.939Z,1012.20
2018-07-27T09:45:20.932Z,1012.19
2018-07-27T09:46:20.928Z,1012.25
2018-07-27T09:47:20.921Z,1012.18
2018-07-27T09:48:20.916Z,1012.19
2018-07-27T09:49:20.919Z,1012.05
2018-07-27T09:50:20.905Z,1012.15
2018-07-27T09:51:20.898Z,1012.21
2018-07-27T09:52:20.898Z,1012.22
2018-07-27T09:53:20.889Z,1012.23
2018-07-27T09:54:20.883Z,1012.25
2018-07-27T09:55:20.878Z,1012.24
2018-07-27T09:56:20.872Z,1012.24
2018-07-27T09:57:20.870Z,1012.23
2018-07-27T09:58:20.862Z,1012.24
2018-07-27T09:59:20.855Z,1012.20
2018-07-27T10:00:20.852Z,1012.19
2018-07-27T10:01:20.848Z,1012.14
2018-07-27T10:02:20.841Z,1012.18
2018-07-27T10:03:20.834Z,1012.18
2018-07-27T10:04:20.830Z,1012.06
2018-07-27T10:05:20.827Z,1012.15
2018-07-27T10:06:20.825Z,1012.19
2018-07-27T10:07:20.815Z,1012.11
2018-07-27T10:08:20.811Z,1012.10
2018-07-27T10:09:20.804Z,1012.11
2018-07-27T10:10:20.799Z,1012.09
2018-07-27T10:11:20.793Z,1012.03
2018-07-27T10:12:20.789Z,1012.05
2018-07-27T10:13:20.786Z,1012.00
2018-07-27T10:14:20.777Z,1011.97
2018-07-27T10:16:08.319Z,1011.82
2018-07-27T10:17:08.312Z,1011.94
2018-07-27T10:18:08.307Z,1011.97
2018-07-27T10:19:08.306Z,1012.04
2018-07-27T10:20:08.302Z,1011.88
2018-07-27T10:21:08.292Z,1011.87
2018-07-27T10:22:08.287Z,1012.00
2018-07-27T10:23:08.287Z,1011.93
2018-07-27T10:24:08.329Z,1011.95
2018-07-27T10:25:08.277Z,1011.98
2018-07-27T10:26:08.268Z,1011.97
2018-07-27T10:27:08.264Z,1011.97
2018-07-27T10:28:08.267Z,1011.97
2018-07-27T10:29:08.257Z,1011.92
2018-07-27T10:30:08.248Z,1011.92
2018-07-27T10:31:08.249Z,1011.97
2018-07-27T10:32:08.240Z,1011.94
2018-07-27T10:33:08.236Z,1011.92
2018-07-27T10:34:33.212Z,1011.88
2018-07-27T10:35:31.999Z,1011.87
2018-07-27T10:36:31.994Z,1011.91
2018-07-27T10:37:31.990Z,1011.81
2018-07-27T10:38:31.987Z,1011.85
2018-07-27T10:39:31.981Z,1011.87
2018-07-27T10:40:31.982Z,1011.85
2018-07-27T10:41:31.972Z,1011.81
2018-07-27T10:42:31.969Z,1011.80
2018-07-27T10:43:31.961Z,1011.82
2018-07-27T10:44:31.957Z,1011.81
2018-07-27T10:45:31.952Z,1011.83
2018-07-27T10:46:31.948Z,1011.63
2018-07-27T10:47:31.947Z,1011.81
2018-07-27T10:48:31.939Z,1011.87
2018-07-27T10:49:31.935Z,1011.75
2018-07-27T10:50:31.935Z,1011.65
2018-07-27T10:51:31.925Z,1011.64
2018-07-27T10:52:31.922Z,1011.66
2018-07-27T10:53:31.916Z,1011.61
2018-07-27T10:54:31.912Z,1011.75
2018-07-27T10:55:31.909Z,1011.75
2018-07-27T10:56:31.952Z,1011.73
2018-07-27T10:57:31.904Z,1011.56
2018-07-27T10:58:31.894Z,1011.56
2018-07-27T10:59:31.890Z,1011.56
2018-07-27T11:00:31.885Z,1011.59
2018-07-27T11:01:31.881Z,1011.64
2018-07-27T11:02:31.886Z,1011.68
2018-07-27T11:03:31.873Z,1011.68
2018-07-27T11:04:31.873Z,1011.71
2018-07-27T11:05:31.863Z,1011.71
2018-07-27T11:06:31.866Z,1011.70
2018-07-27T11:07:31.859Z,1011.67
2018-07-27T11:08:31.850Z,1011.60
2018-07-27T11:09:31.845Z,1011.60
2018-07-27T11:10:31.839Z,1011.59
2018-07-27T11:11:31.836Z,1011.41
2018-07-27T11:12:31.831Z,1011.47
2018-07-27T11:13:31.828Z,1011.55
2018-07-27T11:14:31.823Z,1011.40
2018-07-27T11:15:31.818Z,1011.36
2018-07-27T11:16:31.822Z,1011.39
2018-07-27T11:17:31.896Z,1011.43
2018-07-27T11:18:31.804Z,1011.50
2018-07-27T11:19:31.801Z,1011.47
2018-07-27T11:20:31.796Z,1011.42
2018-07-27T11:21:31.793Z,1011.45
2018-07-27T11:22:31.804Z,1011.45
2018-07-27T11:23:31.781Z,1011.46
2018-07-27T11:24:31.778Z,1011.41
2018-07-27T11:25:31.802Z,1011.35
2018-07-27T11:26:31.770Z,1011.37
2018-07-27T11:27:31.764Z,1011.37
2018-07-27T11:28:31.759Z,1011.40
2018-07-27T11:29:31.755Z,1011.29
2018-07-27T11:30:31.752Z,1011.32
2018-07-27T11:31:31.745Z,1011.37
2018-07-27T11:32:31.742Z,1011.16
2018-07-27T11:33:31.738Z,1011.32
2018-07-27T11:34:31.733Z,1011.30
2018-07-27T11:35:31.727Z,1011.33
2018-07-27T11:36:31.724Z,1011.30
2018-07-27T11:37:31.790Z,1011.28
2018-07-27T11:38:31.714Z,1011.29
2018-07-27T11:39:31.712Z,1011.22
2018-07-27T11:40:31.712Z,1011.21
2018-07-27T11:41:31.708Z,1011.21
2018-07-27T11:42:31.751Z,1011.20
2018-07-27T11:43:31.693Z,1011.15
2018-07-27T11:44:31.692Z,1011.12
2018-07-27T11:45:31.687Z,1011.06
2018-07-27T11:46:31.685Z,1011.05
2018-07-27T11:47:31.679Z,1011.03
2018-07-27T11:48:31.673Z,1011.05
2018-07-27T11:49:31.694Z,1010.98
2018-07-27T11:50:31.663Z,1010.97
2018-07-27T11:51:31.660Z,1010.94
2018-07-27T11:52:31.660Z,1010.98
2018-07-27T11:53:31.652Z,1010.91
2018-07-27T11:54:31.645Z,1010.91
2018-07-27T11:55:31.644Z,1010.97
2018-07-27T11:56:31.644Z,1010.98
2018-07-27T11:57:31.635Z,1010.95
2018-07-27T11:58:31.629Z,1010.98
2018-07-27T11:59:31.628Z,1011.00
2018-07-27T12:00:31.624Z,1010.99
2018-07-27T12:01:31.658Z,1010.95
2018-07-27T12:02:31.613Z,1010.95
2018-07-27T12:03:31.613Z,1010.93
2018-07-27T12:04:31.607Z,1010.99
2018-07-27T12:05:31.605Z,1010.99
2018-07-27T12:06:31.599Z,1011.00
2018-07-27T12:07:31.595Z,1011.07